Time;durP1;ratioP1;P1;durP2;ratioP2;P2;SDS_P1;SDS_P2;PMS_P1;PMS_P2;Temp;Humidity;BMP_temperature;BMP_pressure;BME280_temperature;BME280_humidity;BME280_pressure;Samples;Min_cycle;Max_cycle;Signal;HPM_P1;HPM_P2
2022/02/06 00:06:35;;;;;;;14.38;5.13;;;0.40;99.90;;;;;;20839171;28;20052;-76
2022/02/06 00:16:36;;;;;;;11.32;4.50;;;0.60;99.90;;;;;;20840312;28;20048;-75
2022/02/06 00:26:44;;;;;;;11.95;4.38;;;0.60;99.90;;;;;;20838644;28;20112;-76
2022/02/06 00:46:48;;;;;;;12.88;4.30;;;0.70;99.90;;;;;;20980307;28;20131;-75
2022/02/06 00:56:49;;;;;;;6.70;3.60;;;0.80;99.90;;;;;;20997526;28;20072;-76
2022/02/06 01:06:50;;;;;;;9.60;4.32;;;1.00;99.90;;;;;;20996628;28;20461;-76
2022/02/06 01:27:07;;;;;;;5.68;3.08;;;0.90;99.90;;;;;;20994957;28;20032;-76
2022/02/06 01:37:21;;;;;;;14.57;3.70;;;0.80;99.90;;;;;;20993075;28;20035;-76
2022/02/06 02:48:29;;;;;;;12.23;2.45;;;0.90;99.90;;;;;;20998076;28;20135;-76
2022/02/06 03:08:33;;;;;;;7.43;2.70;;;1.30;99.90;;;;;;21006365;28;20032;-76
2022/02/06 03:18:43;;;;;;;8.32;3.03;;;1.40;99.90;;;;;;21004855;28;20068;-76
2022/02/06 03:28:45;;;;;;;5.22;2.63;;;1.40;99.90;;;;;;20997164;28;20025;-76
2022/02/06 03:38:48;;;;;;;7.53;2.15;;;1.40;99.90;;;;;;21000356;28;20564;-75
2022/02/06 03:49:04;;;;;;;5.97;2.50;;;1.60;99.90;;;;;;20963327;28;20127;-76
2022/02/06 03:59:05;;;;;;;9.18;2.35;;;1.80;99.90;;;;;;20957587;28;20115;-75
2022/02/06 04:09:12;;;;;;;9.93;2.42;;;1.80;99.90;;;;;;20961944;28;20127;-76
2022/02/06 04:19:31;;;;;;;9.00;2.03;;;1.90;99.90;;;;;;20897927;28;20064;-76
2022/02/06 04:29:32;;;;;;;2.78;1.63;;;2.10;99.90;;;;;;20882221;28;20078;-76
2022/02/06 04:39:57;;;;;;;6.47;2.90;;;2.30;99.90;;;;;;20897691;28;20116;-76
2022/02/06 05:41:03;;;;;;;5.10;2.00;;;2.30;99.90;;;;;;20911271;28;20479;-76
2022/02/06 05:51:05;;;;;;;8.30;2.28;;;2.20;99.90;;;;;;20910986;28;20068;-76
2022/02/06 06:01:05;;;;;;;1.98;1.10;;;2.20;99.90;;;;;;20910181;28;20068;-76
2022/02/06 06:11:06;;;;;;;7.78;1.58;;;2.60;99.90;;;;;;20908947;28;20025;-76
2022/02/06 06:21:07;;;;;;;3.63;1.83;;;2.80;99.90;;;;;;20907357;28;20032;-76
2022/02/06 06:31:08;;;;;;;3.67;1.50;;;2.80;99.90;;;;;;20894853;28;20103;-76
2022/02/06 06:41:09;;;;;;;3.90;1.60;;;2.90;99.90;;;;;;20910373;22;20045;-76
2022/02/06 06:51:10;;;;;;;7.07;1.63;;;2.90;99.90;;;;;;20978201;28;20032;-77
2022/02/06 07:11:30;;;;;;;1.58;1.17;;;3.00;99.90;;;;;;20991201;28;20044;-77
2022/02/06 07:21:34;;;;;;;6.28;2.20;;;3.20;99.90;;;;;;20990762;28;20387;-76
2022/02/06 07:31:41;;;;;;;5.47;1.38;;;3.30;99.90;;;;;;20990774;28;20032;-76
2022/02/06 07:41:41;;;;;;;7.75;1.98;;;3.40;99.90;;;;;;21004835;28;20393;-77
2022/02/06 07:51:43;;;;;;;3.17;1.25;;;3.60;99.90;;;;;;21004943;28;20052;-77
2022/02/06 08:01:44;;;;;;;6.88;1.50;;;3.80;99.90;;;;;;21002557;28;20043;-76
2022/02/06 08:11:47;;;;;;;;;;;3.90;99.90;;;;;;21002877;28;20555;-75
2022/02/06 08:21:48;;;;;;;11.80;2.15;;;4.10;99.90;;;;;;21001402;28;19916;-76
2022/02/06 08:31:49;;;;;;;;;;;4.40;99.90;;;;;;21008980;28;20124;-75
2022/02/06 08:41:49;;;;;;;7.20;1.75;;;4.50;99.90;;;;;;20967041;28;19981;-77
2022/02/06 08:51:52;;;;;;;8.43;1.60;;;4.70;99.90;;;;;;20897841;28;20025;-76
2022/02/06 09:01:54;;;;;;;5.60;1.35;;;4.90;99.90;;;;;;20867611;28;20033;-74
2022/02/06 09:11:55;;;;;;;3.50;1.25;;;5.10;99.90;;;;;;20895380;28;20032;-77
2022/02/06 09:21:57;;;;;;;6.78;1.80;;;5.30;99.90;;;;;;20883039;28;20045;-77
2022/02/06 09:42:09;;;;;;;7.35;1.40;;;6.00;99.90;;;;;;20875530;28;20056;-76
2022/02/06 09:52:14;;;;;;;7.78;1.73;;;6.20;99.90;;;;;;20880980;28;20072;-77
2022/02/06 10:02:17;;;;;;;4.93;1.10;;;6.40;99.90;;;;;;20910336;28;20064;-77
2022/02/06 10:12:21;;;;;;;5.50;0.80;;;6.60;99.90;;;;;;20888679;28;20028;-77
2022/02/06 10:22:27;;;;;;;2.60;0.90;;;6.70;99.90;;;;;;20893025;28;20029;-76
2022/02/06 10:32:28;;;;;;;5.82;1.67;;;6.70;99.90;;;;;;20889878;28;20725;-75
2022/02/06 10:42:32;;;;;;;4.27;0.70;;;6.90;99.90;;;;;;20883153;28;20110;-78
2022/02/06 10:52:33;;;;;;;2.10;0.70;;;7.00;99.90;;;;;;20894885;28;20041;-76
2022/02/06 11:02:35;;;;;;;3.30;1.10;;;7.00;99.90;;;;;;20913059;28;20044;-77
2022/02/06 11:12:38;;;;;;;2.15;0.70;;;7.00;99.90;;;;;;20902714;28;20098;-77
2022/02/06 11:22:52;;;;;;;4.07;0.60;;;7.10;99.90;;;;;;20904777;28;20545;-76
2022/02/06 11:32:54;;;;;;;0.80;0.45;;;7.10;99.90;;;;;;20902752;28;20071;-76
2022/02/06 11:43:43;;;;;;;3.00;0.60;;;7.10;99.90;;;;;;20904994;28;20123;-76
2022/02/06 11:53:30;;;;;;;0.73;0.73;;;7.20;99.90;;;;;;20883459;28;20403;-76
2022/02/06 12:03:49;;;;;;;2.10;0.43;;;7.30;99.90;;;;;;20926529;28;20029;-75
2022/02/06 12:14:14;;;;;;;2.60;0.50;;;7.30;99.90;;;;;;20899304;28;20399;-77
2022/02/06 12:24:36;;;;;;;2.33;0.43;;;7.30;99.90;;;;;;20832675;28;20048;-76
2022/02/06 12:45:03;;;;;;;3.33;0.80;;;7.40;99.90;;;;;;20873288;28;20037;-75
2022/02/06 12:55:05;;;;;;;0.30;0.30;;;7.40;99.90;;;;;;20876222;28;20047;-75
2022/02/06 13:05:11;;;;;;;;;;;7.50;99.90;;;;;;20825156;28;20037;-75
2022/02/06 13:26:37;;;;;;;0.90;0.50;;;7.50;99.90;;;;;;20885630;28;20048;-76
2022/02/06 13:36:19;;;;;;;2.40;0.50;;;7.50;99.90;;;;;;20829422;28;20510;-75
2022/02/06 13:46:24;;;;;;;1.85;0.70;;;7.60;99.90;;;;;;20727790;28;20064;-75
2022/02/06 13:56:28;;;;;;;2.40;0.65;;;7.80;99.90;;;;;;20727506;28;20806;-75
2022/02/06 14:06:42;;;;;;;2.40;0.60;;;7.80;99.90;;;;;;20725378;28;20132;-75
2022/02/06 14:16:44;;;;;;;1.05;0.50;;;8.10;99.90;;;;;;20724698;28;20056;-75
2022/02/06 14:27:03;;;;;;;1.77;0.77;;;7.90;99.90;;;;;;20723422;28;20140;-74
2022/02/06 14:37:11;;;;;;;3.03;1.02;;;7.80;99.90;;;;;;20723849;28;20038;-75
2022/02/06 14:47:12;;;;;;;5.53;0.90;;;7.80;99.90;;;;;;20723518;28;20125;-74
2022/02/06 14:57:13;;;;;;;0.90;0.60;;;7.80;99.90;;;;;;20723647;28;20113;-76
2022/02/06 15:07:14;;;;;;;2.40;0.90;;;7.60;99.90;;;;;;20725132;28;20045;-75
2022/02/06 15:17:19;;;;;;;2.83;1.03;;;7.30;99.90;;;;;;20721248;28;20128;-75
2022/02/06 15:27:20;;;;;;;5.18;0.88;;;7.10;99.90;;;;;;20728203;28;20061;-80
2022/02/06 15:37:27;;;;;;;1.33;0.87;;;6.60;99.90;;;;;;20695554;28;20042;-82
2022/02/06 15:47:30;;;;;;;6.15;1.00;;;6.10;99.90;;;;;;20707110;28;20137;-82
2022/02/06 15:57:31;;;;;;;1.90;0.88;;;5.70;99.90;;;;;;20737320;28;20413;-79
2022/02/06 16:07:32;;;;;;;;;;;5.70;99.90;;;;;;20711947;28;20084;-80
2022/02/06 16:17:33;;;;;;;3.97;1.10;;;5.70;99.90;;;;;;20749469;28;20387;-80
2022/02/06 16:27:34;;;;;;;0.82;0.57;;;5.60;99.90;;;;;;20708084;28;20300;-81
2022/02/06 16:37:35;;;;;;;0.75;0.47;;;5.80;99.90;;;;;;20707891;28;20049;-81
2022/02/06 16:47:36;;;;;;;1.10;0.65;;;5.80;99.90;;;;;;20751376;28;20104;-79
2022/02/06 16:57:37;;;;;;;0.53;0.40;;;5.80;99.90;;;;;;20730407;28;20095;-79
2022/02/06 17:07:38;;;;;;;0.40;0.40;;;6.10;99.90;;;;;;20739741;28;20774;-78
2022/02/06 17:17:39;;;;;;;2.15;1.00;;;6.10;99.90;;;;;;20753838;28;20284;-79
2022/02/06 17:27:40;;;;;;;;;;;6.30;99.90;;;;;;20741664;28;20073;-80
2022/02/06 17:37:41;;;;;;;0.85;0.55;;;6.50;99.90;;;;;;20754540;28;19925;-80
2022/02/06 17:47:44;;;;;;;1.15;0.82;;;6.70;99.90;;;;;;20746154;28;20057;-79
2022/02/06 17:57:45;;;;;;;0.40;0.40;;;6.80;99.90;;;;;;20727511;28;20516;-79
2022/02/06 18:07:46;;;;;;;1.80;0.70;;;7.00;99.90;;;;;;20752751;28;20042;-79
2022/02/06 18:17:47;;;;;;;1.00;0.73;;;6.90;99.90;;;;;;20741819;28;20065;-79
2022/02/06 18:27:48;;;;;;;1.23;0.70;;;7.00;99.90;;;;;;20747228;28;20038;-81
2022/02/06 18:37:48;;;;;;;1.90;0.97;;;6.80;99.90;;;;;;20751867;22;20518;-75
2022/02/06 18:47:50;;;;;;;0.80;0.63;;;6.50;99.90;;;;;;20733357;28;20673;-74
2022/02/06 18:57:51;;;;;;;3.97;1.70;;;6.40;99.90;;;;;;20732753;28;20046;-75
2022/02/06 19:07:52;;;;;;;4.28;1.38;;;6.50;99.90;;;;;;20739624;28;20062;-73
2022/02/06 19:17:54;;;;;;;3.40;1.03;;;6.70;99.90;;;;;;20735739;28;20044;-75
2022/02/06 19:27:54;;;;;;;0.22;0.20;;;6.70;99.90;;;;;;20729327;28;20042;-75
2022/02/06 19:37:56;;;;;;;0.70;0.60;;;6.80;99.90;;;;;;20741830;28;20073;-74
2022/02/06 19:47:58;;;;;;;1.80;1.10;;;6.70;99.90;;;;;;20740477;28;20041;-73
2022/02/06 19:57:59;;;;;;;2.05;1.23;;;6.80;99.90;;;;;;20738238;28;20034;-72
2022/02/06 20:08:00;;;;;;;0.50;0.50;;;6.80;99.90;;;;;;20735430;28;20045;-73
2022/02/06 20:18:01;;;;;;;0.50;0.50;;;6.90;99.90;;;;;;20734248;28;20504;-74
2022/02/06 20:28:02;;;;;;;1.42;1.10;;;6.70;99.90;;;;;;20733689;28;20542;-76
2022/02/06 20:38:03;;;;;;;1.07;0.90;;;6.60;99.90;;;;;;20734209;28;20033;-75
2022/02/06 20:48:04;;;;;;;3.27;0.70;;;6.70;99.90;;;;;;20734029;28;20096;-72
2022/02/06 20:58:04;;;;;;;;;;;6.70;99.90;;;;;;20731939;28;20542;-73
2022/02/06 21:08:05;;;;;;;0.40;0.40;;;6.70;99.90;;;;;;20730805;28;20012;-75
2022/02/06 21:18:06;;;;;;;2.90;1.07;;;6.70;99.90;;;;;;20728217;28;20118;-72
2022/02/06 21:28:07;;;;;;;0.50;0.50;;;6.90;99.90;;;;;;20727962;28;20037;-72
2022/02/06 21:38:10;;;;;;;0.20;0.20;;;7.10;99.90;;;;;;20728409;28;20506;-75
2022/02/06 21:48:13;;;;;;;1.17;0.22;;;7.40;99.90;;;;;;20722574;28;20080;-75
2022/02/06 21:58:14;;;;;;;0.35;0.30;;;7.60;99.90;;;;;;20728083;28;20101;-73
2022/02/06 22:08:29;;;;;;;0.30;0.30;;;7.60;99.90;;;;;;20751098;28;20029;-74
2022/02/06 22:28:58;;;;;;;1.42;0.80;;;7.80;99.90;;;;;;20743772;28;20026;-72
2022/02/06 22:39:00;;;;;;;0.52;0.40;;;7.70;99.90;;;;;;20743785;28;20037;-75
2022/02/06 22:49:04;;;;;;;0.73;0.52;;;7.80;99.90;;;;;;20741829;28;20096;-74
2022/02/06 22:59:05;;;;;;;1.88;0.80;;;8.60;99.90;;;;;;20742578;28;20044;-73
2022/02/06 23:09:06;;;;;;;2.10;0.90;;;9.00;99.90;;;;;;20755794;28;20022;-74
2022/02/06 23:19:09;;;;;;;5.83;1.80;;;9.10;99.90;;;;;;20758418;28;20034;-74
2022/02/06 23:29:10;;;;;;;1.33;0.50;;;9.20;99.90;;;;;;20757764;28;20489;-73
2022/02/06 23:39:11;;;;;;;0.20;0.20;;;9.10;99.90;;;;;;20757183;28;20452;-73
2022/02/06 23:49:12;;;;;;;0.60;0.30;;;8.90;99.90;;;;;;20771249;28;20030;-75
2022/02/06 23:59:40;;;;;;;0.57;0.30;;;9.10;99.90;;;;;;20754483;28;20488;-74
